createdAt,value
2016-07-12T00:00:54.746Z,19.62
2016-07-12T00:01:54.763Z,19.62
2016-07-12T00:02:54.785Z,19.56
2016-07-12T00:03:54.802Z,19.51
2016-07-12T00:04:54.817Z,19.55
2016-07-12T00:05:54.852Z,19.54
2016-07-12T00:06:54.870Z,19.52
2016-07-12T00:07:54.886Z,19.51
2016-07-12T00:08:54.896Z,19.54
2016-07-12T00:09:54.917Z,19.47
2016-07-12T00:10:54.950Z,19.41
2016-07-12T00:11:54.968Z,19.47
2016-07-12T00:12:54.993Z,19.45
2016-07-12T00:13:55.013Z,19.45
2016-07-12T00:14:55.025Z,19.4
2016-07-12T00:15:55.055Z,19.36
2016-07-12T00:16:55.075Z,19.41
2016-07-12T00:17:55.095Z,19.37
2016-07-12T00:18:55.106Z,19.37
2016-07-12T00:19:55.123Z,19.39
2016-07-12T00:20:55.156Z,19.34
2016-07-12T00:21:55.171Z,19.39
2016-07-12T00:22:55.206Z,19.39
2016-07-12T00:23:55.211Z,19.33
2016-07-12T00:24:55.240Z,19.33
2016-07-12T00:25:55.259Z,19.3
2016-07-12T00:26:55.273Z,19.22
2016-07-12T00:27:55.305Z,19.21
2016-07-12T00:28:55.325Z,19.15
2016-07-12T00:29:55.342Z,19.16
2016-07-12T00:30:55.365Z,19.18
2016-07-12T00:31:55.391Z,19.09
2016-07-12T00:32:55.405Z,19.16
2016-07-12T00:33:55.426Z,19.12
2016-07-12T00:34:55.444Z,19
2016-07-12T00:35:55.461Z,19.12
2016-07-12T00:36:55.493Z,19.04
2016-07-12T00:37:55.513Z,19.09
2016-07-12T00:38:55.521Z,19.08
2016-07-12T00:39:55.547Z,19
2016-07-12T00:40:55.569Z,19
2016-07-12T00:41:55.580Z,18.98
2016-07-12T00:42:55.609Z,19.08
2016-07-12T00:43:55.630Z,19.07
2016-07-12T00:44:55.655Z,19
2016-07-12T00:45:55.672Z,18.99
2016-07-12T00:46:55.693Z,19
2016-07-12T00:47:55.714Z,18.99
2016-07-12T00:48:55.742Z,18.98
2016-07-12T00:49:55.759Z,18.93
2016-07-12T00:50:55.768Z,18.98
2016-07-12T00:51:55.801Z,18.95
2016-07-12T00:52:55.804Z,18.92
2016-07-12T00:53:55.840Z,18.84
2016-07-12T00:54:55.861Z,18.9
2016-07-12T00:55:55.881Z,18.84
2016-07-12T00:56:55.895Z,18.78
2016-07-12T00:57:55.908Z,18.81
2016-07-12T00:58:55.944Z,18.74
2016-07-12T00:59:55.957Z,18.75
2016-07-12T01:00:55.977Z,18.81
2016-07-12T01:01:55.991Z,18.71
2016-07-12T01:02:56.012Z,18.73
2016-07-12T01:03:56.045Z,18.75
2016-07-12T01:04:56.066Z,18.6
2016-07-12T01:05:56.082Z,18.65
2016-07-12T01:06:56.097Z,18.65
2016-07-12T01:07:56.112Z,18.58
2016-07-12T01:08:56.148Z,18.66
2016-07-12T01:09:56.159Z,18.58
2016-07-12T01:10:56.189Z,18.66
2016-07-12T01:11:56.197Z,18.56
2016-07-12T01:12:56.231Z,18.44
2016-07-12T01:13:56.237Z,18.53
2016-07-12T01:14:56.265Z,18.47
2016-07-12T01:15:56.290Z,18.41
2016-07-12T01:16:56.306Z,18.4
2016-07-12T01:17:56.323Z,18.49
2016-07-12T01:18:56.342Z,18.41
2016-07-12T01:19:56.365Z,18.45
2016-07-12T01:20:56.396Z,18.38
2016-07-12T01:21:56.406Z,18.4
2016-07-12T01:22:56.426Z,18.37
2016-07-12T01:23:56.444Z,18.34
2016-07-12T01:24:56.475Z,18.35
2016-07-12T01:25:56.484Z,18.37
2016-07-12T01:26:56.504Z,18.28
2016-07-12T01:27:56.533Z,18.35
2016-07-12T01:28:56.548Z,18.29
2016-07-12T01:29:56.562Z,18.41
2016-07-12T01:30:56.591Z,18.22
2016-07-12T01:31:56.608Z,18.34
2016-07-12T01:32:56.629Z,18.33
2016-07-12T01:33:56.646Z,18.34
2016-07-12T01:34:56.671Z,18.38
2016-07-12T01:35:56.689Z,18.23
2016-07-12T01:36:56.711Z,18.37
2016-07-12T01:37:56.726Z,18.23
2016-07-12T01:38:56.759Z,18.33
2016-07-12T01:39:56.769Z,18.18
2016-07-12T01:40:56.794Z,18.23
2016-07-12T01:41:56.816Z,18.31
2016-07-12T01:42:56.831Z,18.31
2016-07-12T01:43:56.854Z,18.34
2016-07-12T01:44:56.861Z,18.33
2016-07-12T01:45:56.894Z,18.22
2016-07-12T01:46:56.906Z,18.19
2016-07-12T01:47:56.923Z,18.25
2016-07-12T01:48:56.954Z,18.16
2016-07-12T01:49:56.969Z,18.23
2016-07-12T01:50:57.001Z,18.18
2016-07-12T01:51:57.011Z,18.19
2016-07-12T01:52:57.043Z,18.04
2016-07-12T01:53:57.059Z,18.15
2016-07-12T01:54:57.079Z,18.08
2016-07-12T01:55:57.088Z,18.08
2016-07-12T01:56:57.120Z,18.01
2016-07-12T01:57:57.143Z,18.04
2016-07-12T01:58:57.164Z,18.05
2016-07-12T01:59:57.167Z,18.01
2016-07-12T02:00:57.195Z,18.04
2016-07-12T02:01:57.217Z,18.11
2016-07-12T02:02:57.233Z,18.01
2016-07-12T02:03:57.248Z,18.05
2016-07-12T02:04:57.274Z,17.98
2016-07-12T02:05:57.289Z,18.08
2016-07-12T02:06:57.313Z,18.03
2016-07-12T02:07:57.340Z,18.03
2016-07-12T02:08:57.353Z,18.04
2016-07-12T02:09:57.378Z,18.13
2016-07-12T02:10:57.404Z,18.1
2016-07-12T02:11:57.416Z,18.19
2016-07-12T02:12:57.437Z,18.18
2016-07-12T02:13:57.453Z,18.13
2016-07-12T02:14:57.471Z,18.16
2016-07-12T02:15:57.515Z,18.22
2016-07-12T02:16:57.512Z,18.18
2016-07-12T02:17:57.535Z,18.2
2016-07-12T02:18:57.565Z,18.11
2016-07-12T02:19:57.572Z,18.15
2016-07-12T02:20:57.602Z,18.07
2016-07-12T02:21:57.626Z,18.04
2016-07-12T02:22:57.645Z,18.03
2016-07-12T02:23:57.648Z,18.03
2016-07-12T02:24:57.672Z,18.03
2016-07-12T02:25:57.693Z,18.03
2016-07-12T02:26:57.717Z,18.03
2016-07-12T02:27:57.737Z,17.98
2016-07-12T02:28:57.756Z,17.94
2016-07-12T02:29:57.816Z,17.97
2016-07-12T02:30:57.793Z,17.97
2016-07-12T02:31:57.808Z,17.95
2016-07-12T02:32:57.840Z,17.92
2016-07-12T02:33:57.862Z,17.87
2016-07-12T02:34:57.888Z,17.97
2016-07-12T02:35:57.890Z,17.85
2016-07-12T02:36:57.917Z,17.85
2016-07-12T02:37:57.937Z,17.9
2016-07-12T02:38:57.964Z,17.9
2016-07-12T02:39:57.967Z,17.89
2016-07-12T02:40:57.988Z,17.97
2016-07-12T02:41:58.020Z,17.92
2016-07-12T02:42:58.046Z,17.95
2016-07-12T02:43:58.055Z,18
2016-07-12T02:44:58.072Z,17.98
2016-07-12T02:45:58.102Z,18.01
2016-07-12T02:46:58.127Z,18.1
2016-07-12T02:47:58.142Z,18.05
2016-07-12T02:48:58.145Z,18.15
2016-07-12T02:49:58.169Z,18.18
2016-07-12T02:50:58.204Z,18.28
2016-07-12T02:51:58.215Z,18.19
2016-07-12T02:52:58.240Z,18.18
2016-07-12T02:53:58.247Z,18.22
2016-07-12T02:54:58.276Z,18.18
2016-07-12T02:55:58.301Z,18.26
2016-07-12T02:56:58.313Z,18.26
2016-07-12T02:57:58.337Z,18.33
2016-07-12T02:58:58.354Z,18.38
2016-07-12T02:59:58.375Z,18.37
2016-07-12T03:00:58.391Z,18.38
2016-07-12T03:01:58.421Z,18.31
2016-07-12T03:02:58.442Z,18.31
2016-07-12T03:03:58.456Z,18.31
2016-07-12T03:04:58.482Z,18.35
2016-07-12T03:05:58.499Z,18.38
2016-07-12T03:06:58.516Z,18.38
2016-07-12T03:07:58.536Z,18.37
2016-07-12T03:08:58.555Z,18.37
2016-07-12T03:09:58.579Z,18.22
2016-07-12T03:10:58.599Z,18.26
2016-07-12T03:11:58.623Z,18.28
2016-07-12T03:12:58.632Z,18.43
2016-07-12T03:13:58.655Z,18.38
2016-07-12T03:14:58.680Z,18.34
2016-07-12T03:15:58.697Z,18.43
2016-07-12T03:16:58.716Z,18.43
2016-07-12T03:17:58.737Z,18.44
2016-07-12T03:18:58.756Z,18.43
2016-07-12T03:19:58.777Z,18.43
2016-07-12T03:20:58.794Z,18.5
2016-07-12T03:21:58.818Z,18.41
2016-07-12T03:22:58.842Z,18.44
2016-07-12T03:23:58.851Z,18.45
2016-07-12T03:24:58.885Z,18.41
2016-07-12T03:25:58.897Z,18.47
2016-07-12T03:26:58.928Z,18.49
2016-07-12T03:27:58.931Z,18.43
2016-07-12T03:28:58.957Z,18.47
2016-07-12T03:29:58.980Z,18.5
2016-07-12T03:30:59.007Z,18.5
2016-07-12T03:31:59.022Z,18.56
2016-07-12T03:32:59.034Z,18.5
2016-07-12T03:33:59.058Z,18.47
2016-07-12T03:34:59.085Z,18.56
2016-07-12T03:35:59.101Z,18.53
2016-07-12T03:36:59.118Z,18.55
2016-07-12T03:37:59.137Z,18.55
2016-07-12T03:38:59.162Z,18.47
2016-07-12T03:39:59.180Z,18.53
2016-07-12T03:40:59.199Z,18.59
2016-07-12T03:41:59.217Z,18.55
2016-07-12T03:42:59.242Z,18.58
2016-07-12T03:43:59.266Z,18.65
2016-07-12T03:44:59.300Z,18.53
2016-07-12T03:45:59.293Z,18.58
2016-07-12T03:46:59.327Z,18.59
2016-07-12T03:47:59.337Z,18.6
2016-07-12T03:48:59.359Z,18.65
2016-07-12T03:49:59.384Z,18.6
2016-07-12T03:50:59.407Z,18.6
2016-07-12T03:51:59.421Z,18.73
2016-07-12T03:52:59.445Z,18.73
2016-07-12T03:53:59.458Z,18.63
2016-07-12T03:54:59.485Z,18.73
2016-07-12T03:55:59.516Z,18.71
2016-07-12T03:56:59.530Z,18.68
2016-07-12T03:57:59.549Z,18.66
2016-07-12T03:58:59.566Z,18.71
2016-07-12T03:59:59.584Z,18.7
2016-07-12T04:01:00.323Z,18.65
2016-07-12T04:01:59.618Z,18.73
2016-07-12T04:02:59.646Z,18.74
2016-07-12T04:03:59.672Z,18.74
2016-07-12T04:04:59.692Z,18.78
2016-07-12T04:05:59.704Z,18.7
2016-07-12T04:06:59.726Z,18.68
2016-07-12T04:07:59.743Z,18.62
2016-07-12T04:08:59.772Z,18.73
2016-07-12T04:09:59.783Z,18.78
2016-07-12T04:10:59.810Z,18.77
2016-07-12T04:11:59.828Z,18.7
2016-07-12T04:12:59.847Z,18.73
2016-07-12T04:13:59.867Z,18.78
2016-07-12T04:14:59.893Z,18.75
2016-07-12T04:15:59.902Z,18.73
2016-07-12T04:16:59.922Z,18.77
2016-07-12T04:17:59.947Z,18.86
2016-07-12T04:18:59.976Z,18.8
2016-07-12T04:19:59.989Z,18.77
2016-07-12T04:21:00.010Z,18.8
2016-07-12T04:22:00.030Z,18.83
2016-07-12T04:23:00.045Z,18.83
2016-07-12T04:24:00.076Z,18.78
2016-07-12T04:25:00.089Z,18.81
2016-07-12T04:26:00.109Z,18.92
2016-07-12T04:27:00.124Z,18.95
2016-07-12T04:28:00.151Z,18.9
2016-07-12T04:29:00.179Z,18.92
2016-07-12T04:30:00.187Z,18.96
2016-07-12T04:31:00.223Z,19.02
2016-07-12T04:32:00.237Z,19.07
2016-07-12T04:33:00.257Z,18.98
2016-07-12T04:34:00.262Z,19.04
2016-07-12T04:35:00.298Z,19.02
2016-07-12T04:36:00.312Z,19
2016-07-12T04:37:00.342Z,19.11
2016-07-12T04:38:00.347Z,19.18
2016-07-12T04:39:00.368Z,19.15
2016-07-12T04:40:00.394Z,19.16
2016-07-12T04:41:00.423Z,19.31
2016-07-12T04:42:00.432Z,19.3
2016-07-12T04:43:00.461Z,19.34
2016-07-12T04:44:00.473Z,19.31
2016-07-12T04:45:00.507Z,19.26
2016-07-12T04:46:00.512Z,19.34
2016-07-12T04:47:00.536Z,19.39
2016-07-12T04:48:00.555Z,19.33
2016-07-12T04:49:00.578Z,19.39
2016-07-12T04:50:00.591Z,19.34
2016-07-12T04:51:00.620Z,19.36
2016-07-12T04:52:00.637Z,19.37
2016-07-12T04:53:00.659Z,19.34
2016-07-12T04:54:00.679Z,19.49
2016-07-12T04:55:00.704Z,19.49
2016-07-12T04:56:00.730Z,19.48
2016-07-12T04:57:00.742Z,19.48
2016-07-12T04:58:00.759Z,19.36
2016-07-12T04:59:00.776Z,19.36
2016-07-12T05:00:00.803Z,19.4
2016-07-12T05:01:00.820Z,19.59
2016-07-12T05:02:00.845Z,19.48
2016-07-12T05:03:00.860Z,19.54
2016-07-12T05:04:00.895Z,19.52
2016-07-12T05:05:00.907Z,19.59
2016-07-12T05:06:00.922Z,19.64
2016-07-12T05:07:00.953Z,19.64
2016-07-12T05:08:00.969Z,19.63
2016-07-12T05:09:00.982Z,19.69
2016-07-12T05:10:01.005Z,19.73
2016-07-12T05:11:01.024Z,19.7
2016-07-12T05:12:01.058Z,19.77
2016-07-12T05:13:01.063Z,19.82
2016-07-12T05:14:01.097Z,19.99
2016-07-12T05:15:01.106Z,20.14
2016-07-12T05:16:01.133Z,20.22
2016-07-12T05:17:01.151Z,20.19
2016-07-12T05:18:01.176Z,20.19
2016-07-12T05:19:01.200Z,20.21
2016-07-12T05:20:01.225Z,20.18
2016-07-12T05:21:01.238Z,20.16
2016-07-12T05:22:01.248Z,20.25
2016-07-12T05:23:01.280Z,20.16
2016-07-12T05:24:01.300Z,20.19
2016-07-12T05:25:01.323Z,20.14
2016-07-12T05:26:01.331Z,20.18
2016-07-12T05:27:01.356Z,20.24
2016-07-12T05:28:01.378Z,20.18
2016-07-12T05:29:01.404Z,20.16
2016-07-12T05:30:01.441Z,20.22
2016-07-12T05:31:01.448Z,20.18
2016-07-12T05:32:01.463Z,20.19
2016-07-12T05:33:01.499Z,20.25
2016-07-12T05:34:01.502Z,20.32
2016-07-12T05:35:01.525Z,20.32
2016-07-12T05:36:01.544Z,20.29
2016-07-12T05:37:01.576Z,20.36
2016-07-12T05:38:01.584Z,20.36
2016-07-12T05:39:01.613Z,20.51
2016-07-12T05:40:01.636Z,20.5
2016-07-12T05:41:01.654Z,20.34
2016-07-12T05:42:01.672Z,20.43
2016-07-12T05:43:01.694Z,20.44
2016-07-12T05:44:01.723Z,20.5
2016-07-12T05:45:01.736Z,20.52
2016-07-12T05:46:01.770Z,20.59
2016-07-12T05:47:01.793Z,20.65
2016-07-12T05:48:01.794Z,20.63
2016-07-12T05:49:01.823Z,20.65
2016-07-12T05:50:01.840Z,20.63
2016-07-12T05:51:01.873Z,20.66
2016-07-12T05:52:01.893Z,20.69
2016-07-12T05:53:01.904Z,20.72
2016-07-12T05:54:01.924Z,20.66
2016-07-12T05:55:01.964Z,20.62
2016-07-12T05:56:01.972Z,20.63
2016-07-12T05:57:01.985Z,20.63
2016-07-12T05:58:02.015Z,20.63
2016-07-12T05:59:02.042Z,20.74
2016-07-12T06:00:02.052Z,20.7
2016-07-12T06:01:02.077Z,20.69
2016-07-12T06:02:02.138Z,20.72
2016-07-12T06:03:02.113Z,20.72
2016-07-12T06:04:02.139Z,20.66
2016-07-12T06:05:02.154Z,20.59
2016-07-12T06:06:02.178Z,20.66
2016-07-12T06:07:02.201Z,20.62
2016-07-12T06:08:02.220Z,20.63
2016-07-12T06:09:02.245Z,20.48
2016-07-12T06:10:02.269Z,20.55
2016-07-12T06:11:02.292Z,20.66
2016-07-12T06:12:02.311Z,20.81
2016-07-12T06:13:02.328Z,20.87
2016-07-12T06:14:02.354Z,20.9
2016-07-12T06:15:02.374Z,20.84
2016-07-12T06:16:02.391Z,20.75
2016-07-12T06:17:02.422Z,20.72
2016-07-12T06:18:02.431Z,20.66
2016-07-12T06:19:02.455Z,20.63
2016-07-12T06:20:02.477Z,20.55
2016-07-12T06:21:02.511Z,20.66
2016-07-12T06:22:02.523Z,20.82
2016-07-12T06:23:02.538Z,21
2016-07-12T06:24:02.560Z,21.15
2016-07-12T06:25:02.579Z,21.25
2016-07-12T06:26:02.616Z,21.48
2016-07-12T06:27:02.622Z,21.67
2016-07-12T06:28:02.653Z,21.72
2016-07-12T06:29:02.665Z,21.8
2016-07-12T06:30:02.686Z,21.91
2016-07-12T06:31:02.713Z,21.91
2016-07-12T06:32:02.736Z,21.83
2016-07-12T06:33:02.745Z,21.91
2016-07-12T06:34:02.771Z,21.76
2016-07-12T06:35:02.803Z,21.83
2016-07-12T06:36:02.816Z,21.75
2016-07-12T06:37:02.840Z,21.67
2016-07-12T06:38:02.862Z,21.55
2016-07-12T06:39:02.893Z,21.55
2016-07-12T06:40:02.909Z,21.5
2016-07-12T06:41:02.932Z,21.48
2016-07-12T06:42:02.949Z,21.61
2016-07-12T06:43:02.969Z,21.69
2016-07-12T06:44:03.005Z,21.82
2016-07-12T06:45:03.010Z,21.76
2016-07-12T06:46:03.040Z,21.77
2016-07-12T06:47:03.061Z,21.89
2016-07-12T06:48:03.094Z,21.96
2016-07-12T06:49:03.101Z,22.07
2016-07-12T06:50:03.124Z,21.98
2016-07-12T06:51:03.144Z,22.14
2016-07-12T06:52:03.166Z,22.3
2016-07-12T06:53:03.199Z,22.35
2016-07-12T06:54:03.212Z,22.36
2016-07-12T06:55:03.239Z,22.36
2016-07-12T06:56:03.257Z,22.43
2016-07-12T06:57:03.274Z,22.38
2016-07-12T06:58:03.299Z,22.48
2016-07-12T06:59:03.321Z,22.59
2016-07-12T07:00:03.336Z,22.65
2016-07-12T07:01:03.368Z,22.62
2016-07-12T07:02:03.395Z,22.45
2016-07-12T07:03:03.413Z,22.39
2016-07-12T07:04:03.434Z,22.38
2016-07-12T07:05:03.449Z,22.38
2016-07-12T07:06:03.469Z,22.25
2016-07-12T07:07:03.506Z,22.17
2016-07-12T07:08:03.522Z,22.08
2016-07-12T07:09:03.548Z,21.96
2016-07-12T07:10:03.556Z,21.96
2016-07-12T07:11:03.586Z,22.18
2016-07-12T07:12:03.604Z,22.33
2016-07-12T07:13:03.623Z,22.39
2016-07-12T07:14:03.660Z,22.36
2016-07-12T07:15:03.674Z,22.14
2016-07-12T07:16:03.697Z,22.35
2016-07-12T07:17:03.712Z,22.47
2016-07-12T07:18:03.742Z,22.6
2016-07-12T07:19:03.765Z,22.66
2016-07-12T07:20:03.780Z,22.78
2016-07-12T07:21:03.800Z,22.83
2016-07-12T07:22:03.815Z,22.84
2016-07-12T07:23:03.853Z,22.76
2016-07-12T07:24:03.870Z,22.63
2016-07-12T07:25:03.894Z,22.44
2016-07-12T07:26:03.912Z,22.45
2016-07-12T07:27:03.942Z,22.6
2016-07-12T07:28:03.981Z,22.6
2016-07-12T07:29:03.976Z,22.63
2016-07-12T07:30:04.050Z,22.54
2016-07-12T07:31:04.035Z,22.48
2016-07-12T07:32:04.050Z,22.5
2016-07-12T07:33:04.084Z,22.63
2016-07-12T07:34:04.091Z,22.65
2016-07-12T07:35:04.107Z,22.78
2016-07-12T07:36:04.134Z,22.84
2016-07-12T07:37:04.202Z,22.85
2016-07-12T07:38:04.185Z,22.8
2016-07-12T07:39:04.192Z,22.7
2016-07-12T07:40:04.222Z,22.78
2016-07-12T07:41:04.245Z,22.88
2016-07-12T07:42:04.263Z,22.84
2016-07-12T07:43:04.291Z,22.88
2016-07-12T07:44:04.310Z,22.91
2016-07-12T07:45:04.327Z,22.75
2016-07-12T07:46:04.355Z,22.83
2016-07-12T07:47:04.375Z,22.73
2016-07-12T07:48:04.456Z,22.78
2016-07-12T07:49:04.419Z,22.81
2016-07-12T07:50:04.442Z,22.83
2016-07-12T07:51:04.463Z,22.85
2016-07-12T07:52:04.491Z,22.9
2016-07-12T07:53:04.508Z,23.03
2016-07-12T07:54:04.533Z,23.08
2016-07-12T07:55:04.554Z,22.99
2016-07-12T07:56:04.574Z,23.02
2016-07-12T07:57:04.607Z,23.02
2016-07-12T07:58:04.625Z,22.98
2016-07-12T07:59:04.645Z,22.83
2016-07-12T08:00:04.663Z,22.83
2016-07-12T08:01:04.695Z,22.83
2016-07-12T08:02:04.709Z,22.96
2016-07-12T08:03:04.745Z,23.12
2016-07-12T08:04:04.756Z,22.96
2016-07-12T08:05:04.775Z,22.96
2016-07-12T08:06:04.800Z,22.73
2016-07-12T08:07:04.829Z,22.6
2016-07-12T08:08:04.846Z,22.83
2016-07-12T08:09:04.863Z,22.85
2016-07-12T08:10:04.886Z,23.08
2016-07-12T08:11:04.910Z,23.18
2016-07-12T08:12:04.931Z,23.24
2016-07-12T08:13:04.957Z,23.32
2016-07-12T08:14:04.971Z,23.4
2016-07-12T08:15:04.996Z,23.34
2016-07-12T08:16:05.018Z,23.37
2016-07-12T08:17:05.053Z,23.48
2016-07-12T08:18:05.063Z,23.5
2016-07-12T08:19:05.098Z,23.74
2016-07-12T08:20:05.124Z,23.74
2016-07-12T08:21:05.127Z,23.83
2016-07-12T08:22:05.157Z,23.84
2016-07-12T08:23:05.178Z,23.92
2016-07-12T08:24:05.199Z,24.01
2016-07-12T08:25:05.220Z,24.16
2016-07-12T08:26:05.247Z,24.17
2016-07-12T08:27:05.263Z,24.17
2016-07-12T08:28:05.300Z,24.14
2016-07-12T08:29:05.312Z,24.14
2016-07-12T08:30:05.339Z,24.13
2016-07-12T08:31:05.356Z,24.17
2016-07-12T08:32:05.379Z,24.29
2016-07-12T08:33:05.407Z,24.32
2016-07-12T08:34:05.428Z,24.14
2016-07-12T08:35:05.454Z,24.02
2016-07-12T08:36:05.475Z,23.91
2016-07-12T08:37:05.503Z,23.88
2016-07-12T08:38:05.525Z,23.95
2016-07-12T08:39:05.541Z,23.95
2016-07-12T08:40:05.575Z,23.91
2016-07-12T08:41:05.585Z,23.91
2016-07-12T08:42:05.618Z,23.93
2016-07-12T08:43:05.633Z,23.93
2016-07-12T08:44:05.655Z,24.05
2016-07-12T08:45:05.687Z,24.17
2016-07-12T08:46:05.695Z,24.03
2016-07-12T08:47:05.725Z,23.98
2016-07-12T08:48:05.747Z,23.91
2016-07-12T08:49:05.768Z,23.65
2016-07-12T08:50:05.789Z,23.48
2016-07-12T08:51:05.818Z,23.59
2016-07-12T08:52:05.840Z,23.43
2016-07-12T08:53:05.864Z,23.39
2016-07-12T08:54:05.879Z,23.21
2016-07-12T08:55:05.902Z,23.09
2016-07-12T08:56:05.929Z,22.9
2016-07-12T08:57:05.948Z,23.09
2016-07-12T08:58:05.964Z,23.21
2016-07-12T08:59:05.996Z,23.34
2016-07-12T09:00:06.079Z,23.39
2016-07-12T09:01:06.039Z,23.41
2016-07-12T09:02:06.056Z,23.46
2016-07-12T09:03:06.084Z,23.5
2016-07-12T09:04:06.111Z,23.36
2016-07-12T09:05:06.141Z,23.56
2016-07-12T09:06:06.201Z,23.66
2016-07-12T09:07:06.224Z,23.73
2016-07-12T09:08:06.201Z,23.88
2016-07-12T09:09:06.218Z,23.95
2016-07-12T09:10:06.250Z,24.03
2016-07-12T09:11:06.269Z,24.16
2016-07-12T09:12:06.291Z,24.39
2016-07-12T09:13:06.309Z,24.47
2016-07-12T09:14:06.328Z,24.47
2016-07-12T09:15:06.408Z,24.5
2016-07-12T09:16:06.426Z,24.13
2016-07-12T09:17:06.439Z,24.05
2016-07-12T09:18:06.428Z,23.93
2016-07-12T09:19:06.448Z,24.03
2016-07-12T09:20:06.471Z,24.03
2016-07-12T09:21:06.493Z,24.17
2016-07-12T09:22:06.518Z,24.36
2016-07-12T09:23:06.536Z,24.54
2016-07-12T09:24:06.561Z,24.76
2016-07-12T09:25:06.578Z,24.88
2016-07-12T09:26:06.610Z,24.88
2016-07-12T09:27:06.636Z,24.89
2016-07-12T09:28:06.655Z,24.99
2016-07-12T09:29:06.669Z,25.25
2016-07-12T09:30:06.694Z,25.14
2016-07-12T09:31:06.730Z,25.06
2016-07-12T09:32:06.754Z,24.91
2016-07-12T09:33:06.776Z,24.74
2016-07-12T09:34:06.791Z,24.84
2016-07-12T09:35:06.807Z,24.88
2016-07-12T09:36:06.844Z,25.03
2016-07-12T09:37:06.868Z,24.98
2016-07-12T09:38:06.887Z,24.89
2016-07-12T09:39:06.903Z,24.85
2016-07-12T09:40:06.931Z,25.01
2016-07-12T09:41:06.970Z,25.18
2016-07-12T09:42:06.981Z,25.31
2016-07-12T09:43:07.008Z,25.31
2016-07-12T09:44:07.025Z,25.14
2016-07-12T09:45:07.053Z,25.29
2016-07-12T09:46:07.071Z,25.51
2016-07-12T09:47:07.098Z,25.66
2016-07-12T09:48:07.129Z,25.68
2016-07-12T09:49:07.141Z,25.51
2016-07-12T09:50:07.166Z,25.47
2016-07-12T09:51:07.193Z,25.41
2016-07-12T09:52:07.227Z,25.46
2016-07-12T09:53:07.241Z,25.25
2016-07-12T09:54:07.263Z,25.32
2016-07-12T09:55:07.291Z,25.16
2016-07-12T09:56:07.307Z,25.25
2016-07-12T09:57:07.323Z,25.48
2016-07-12T09:58:07.361Z,25.54
2016-07-12T09:59:07.385Z,25.47
2016-07-12T10:00:07.402Z,25.59
2016-07-12T10:01:07.431Z,25.7
2016-07-12T10:02:07.452Z,25.69
2016-07-12T10:03:07.477Z,25.44
2016-07-12T10:04:07.505Z,25.38
2016-07-12T10:05:07.530Z,25.36
2016-07-12T10:06:07.543Z,25.04
2016-07-12T10:07:07.572Z,24.8
2016-07-12T10:08:07.608Z,24.77
2016-07-12T10:09:07.621Z,24.74
2016-07-12T10:10:07.642Z,24.69
2016-07-12T10:11:07.665Z,24.85
2016-07-12T10:12:07.691Z,24.78
2016-07-12T10:13:07.711Z,24.81
2016-07-12T10:14:07.752Z,24.81
2016-07-12T10:15:07.760Z,24.78
2016-07-12T10:16:07.787Z,24.88
2016-07-12T10:17:07.799Z,24.85
2016-07-12T10:18:07.823Z,24.81
2016-07-12T10:19:07.859Z,24.8
2016-07-12T10:20:07.884Z,24.6
2016-07-12T10:21:07.908Z,24.48
2016-07-12T10:22:07.917Z,24.69
2016-07-12T10:23:07.951Z,24.92
2016-07-12T10:24:07.971Z,24.98
2016-07-12T10:25:07.992Z,25.13
2016-07-12T10:26:08.020Z,25.21
2016-07-12T10:27:08.035Z,25.16
2016-07-12T10:28:08.063Z,24.95
2016-07-12T10:29:08.091Z,24.73
2016-07-12T10:30:08.114Z,24.54
2016-07-12T10:31:08.148Z,24.85
2016-07-12T10:32:08.150Z,24.98
2016-07-12T10:33:08.185Z,25.29
2016-07-12T10:34:08.204Z,25.4
2016-07-12T10:35:09.379Z,25.59
2016-07-12T10:36:09.403Z,25.83
2016-07-12T10:37:09.421Z,25.84
2016-07-12T10:38:09.439Z,25.85
2016-07-12T10:39:09.472Z,26.1
2016-07-12T10:40:09.503Z,26.34
2016-07-12T10:41:09.515Z,26.25
2016-07-12T10:42:09.541Z,25.88
2016-07-12T10:43:09.563Z,25.85
2016-07-12T10:44:09.582Z,25.78
2016-07-12T10:45:09.609Z,25.72
2016-07-12T10:46:09.632Z,25.18
2016-07-12T10:47:09.663Z,24.99
2016-07-12T10:48:09.687Z,24.77
2016-07-12T10:49:09.703Z,24.96
2016-07-12T10:50:09.728Z,25.04
2016-07-12T10:51:09.755Z,25.1
2016-07-12T10:52:09.778Z,25.41
2016-07-12T10:53:09.802Z,25.63
2016-07-12T10:54:09.826Z,25.84
2016-07-12T10:55:09.848Z,25.95
2016-07-12T10:56:09.874Z,26.09
2016-07-12T10:57:09.893Z,26.15
2016-07-12T10:58:09.918Z,25.99
2016-07-12T10:59:09.943Z,25.63
2016-07-12T11:00:09.961Z,25.43
2016-07-12T11:01:10.272Z,25.4
2016-07-12T11:02:10.013Z,25.47
2016-07-12T11:03:10.038Z,25.6
2016-07-12T11:04:10.068Z,25.53
2016-07-12T11:05:10.079Z,25.33
2016-07-12T11:06:10.107Z,25.62
2016-07-12T11:07:10.127Z,25.66
2016-07-12T11:08:10.154Z,25.9
2016-07-12T11:09:10.178Z,25.91
2016-07-12T11:10:10.202Z,26.02
2016-07-12T11:11:10.229Z,26.25
2016-07-12T11:12:10.247Z,26.38
2016-07-12T11:13:10.278Z,26.4
2016-07-12T11:14:10.336Z,26.44
2016-07-12T11:15:10.325Z,26.4
2016-07-12T11:16:10.398Z,26.43
2016-07-12T11:17:10.427Z,26.45
2016-07-12T11:18:10.391Z,26.48
2016-07-12T11:19:10.415Z,26.56
2016-07-12T11:20:10.460Z,26.55
2016-07-12T11:21:10.483Z,26.51
2016-07-12T11:22:10.540Z,26.59
2016-07-12T11:23:10.523Z,26.7
2016-07-12T11:24:10.528Z,26.7
2016-07-12T11:25:10.564Z,26.74
2016-07-12T11:26:10.586Z,26.88
2016-07-12T11:27:10.614Z,26.97
2016-07-12T11:28:10.630Z,26.93
2016-07-12T11:29:10.651Z,26.92
2016-07-12T11:30:10.682Z,26.9
2016-07-12T11:31:10.747Z,26.93
2016-07-12T11:32:10.730Z,27.08
2016-07-12T11:33:10.755Z,27.12
2016-07-12T11:34:10.830Z,27.08
2016-07-12T11:35:10.839Z,27.07
2016-07-12T11:36:10.829Z,27.02
2016-07-12T11:37:10.854Z,26.96
2016-07-12T11:38:10.876Z,27.07
2016-07-12T11:39:10.899Z,27.12
2016-07-12T11:40:10.922Z,26.99
2016-07-12T11:41:10.959Z,26.65
2016-07-12T11:42:10.976Z,26.47
2016-07-12T11:43:10.999Z,26.19
2016-07-12T11:44:11.021Z,26.09
2016-07-12T11:45:11.047Z,26.06
2016-07-12T11:46:11.082Z,25.98
2016-07-12T11:47:11.095Z,25.78
2016-07-12T11:48:11.117Z,25.69
2016-07-12T11:49:11.147Z,25.65
2016-07-12T11:50:11.165Z,25.87
2016-07-12T11:51:11.203Z,25.8
2016-07-12T11:52:11.215Z,25.87
2016-07-12T11:53:11.243Z,25.99
2016-07-12T11:54:11.269Z,26.05
2016-07-12T11:55:11.286Z,26.13
2016-07-12T11:56:11.318Z,26.23
2016-07-12T11:57:11.338Z,26.15
2016-07-12T11:58:11.355Z,26.18
2016-07-12T11:59:11.390Z,26.37
2016-07-12T12:00:11.405Z,26.22
2016-07-12T12:01:11.442Z,25.99
2016-07-12T12:02:11.452Z,25.83
2016-07-12T12:03:11.495Z,25.7
2016-07-12T12:04:11.505Z,25.55
2016-07-12T12:05:11.532Z,25.33
2016-07-12T12:06:11.543Z,25.17
2016-07-12T12:07:11.571Z,25.07
2016-07-12T12:08:11.601Z,25.01
2016-07-12T12:09:11.629Z,24.99
2016-07-12T12:10:11.647Z,25.17
2016-07-12T12:11:11.681Z,25.4
2016-07-12T12:12:11.825Z,25.58
2016-07-12T12:13:11.715Z,25.75
2016-07-12T12:14:11.740Z,25.83
2016-07-12T12:15:11.777Z,25.99
2016-07-12T12:16:11.787Z,26.34
2016-07-12T12:17:11.807Z,26.66
2016-07-12T12:18:11.836Z,26.84
2016-07-12T12:19:11.870Z,26.77
2016-07-12T12:20:11.893Z,26.45
2016-07-12T12:21:11.902Z,26.05
2016-07-12T12:22:11.939Z,25.85
2016-07-12T12:23:11.961Z,25.68
2016-07-12T12:24:11.976Z,25.55
2016-07-12T12:25:12.009Z,25.55
2016-07-12T12:26:12.026Z,25.6
2016-07-12T12:27:12.059Z,25.66
2016-07-12T12:28:12.080Z,25.95
2016-07-12T12:29:12.110Z,25.99
2016-07-12T12:30:12.117Z,26.15
2016-07-12T12:31:12.146Z,26.38
2016-07-12T12:32:12.168Z,26.23
2016-07-12T12:33:12.198Z,26.09
2016-07-12T12:34:12.229Z,25.8
2016-07-12T12:35:12.238Z,25.81
2016-07-12T12:36:12.274Z,25.81
2016-07-12T12:37:12.287Z,25.83
2016-07-12T12:38:12.323Z,26.09
2016-07-12T12:39:12.355Z,26.36
2016-07-12T12:40:12.366Z,26.53
2016-07-12T12:41:12.388Z,26.51
2016-07-12T12:42:12.405Z,26.73
2016-07-12T12:43:12.441Z,26.93
2016-07-12T12:44:12.510Z,27.14
2016-07-12T12:45:12.543Z,27.2
2016-07-12T12:46:12.500Z,27.35
2016-07-12T12:47:12.576Z,27.37
2016-07-12T12:48:12.556Z,27.44
2016-07-12T12:49:12.583Z,27.22
2016-07-12T12:50:12.616Z,27.18
2016-07-12T12:51:12.628Z,27
2016-07-12T12:52:12.682Z,26.85
2016-07-12T12:53:12.674Z,26.84
2016-07-12T12:54:12.710Z,26.97
2016-07-12T12:55:12.729Z,27.15
2016-07-12T12:56:12.752Z,27.25